createdAt,value
2022-10-11T00:00:33.206Z,5.68
2022-10-11T00:05:55.069Z,6.45
2022-10-11T00:11:16.782Z,6.15
2022-10-11T00:16:40.916Z,6.45
2022-10-11T00:22:02.694Z,5.63
2022-10-11T00:27:24.787Z,5.78
2022-10-11T00:32:46.570Z,6.22
2022-10-11T00:38:08.298Z,6.32
2022-10-11T00:43:31.320Z,5.95
2022-10-11T00:49:41.003Z,6.38
2022-10-11T00:55:12.622Z,6.20
2022-10-11T01:00:34.460Z,5.80
2022-10-11T01:05:56.796Z,6.18
2022-10-11T01:11:23.435Z,6.40
2022-10-11T01:17:00.040Z,5.82
2022-10-11T01:22:40.558Z,7.20
2022-10-11T01:28:16.371Z,5.50
2022-10-11T01:33:51.845Z,5.68
2022-10-11T01:39:21.936Z,5.25
2022-10-11T01:44:47.420Z,5.72
2022-10-11T01:50:46.371Z,5.22
2022-10-11T01:56:39.714Z,5.93
2022-10-11T02:02:19.452Z,5.55
2022-10-11T02:08:14.932Z,6.43
2022-10-11T02:14:01.669Z,6.20
2022-10-11T02:19:30.151Z,6.40
2022-10-11T02:24:57.718Z,6.40
2022-10-11T02:30:19.505Z,6.63
2022-10-11T02:35:46.719Z,6.63
2022-10-11T02:41:32.449Z,7.22
2022-10-11T02:46:54.817Z,7.57
2022-10-11T02:52:16.518Z,8.02
2022-10-11T02:57:38.215Z,9.35
2022-10-11T03:02:59.917Z,10.18
2022-10-11T03:08:21.647Z,11.00
2022-10-11T03:13:43.381Z,10.68
2022-10-11T03:19:05.076Z,11.90
2022-10-11T03:24:26.840Z,12.65
2022-10-11T03:29:48.553Z,14.20
2022-10-11T03:35:10.264Z,14.13
2022-10-11T03:40:32.139Z,14.52
2022-10-11T03:45:53.882Z,15.30
2022-10-11T03:51:15.744Z,15.77
2022-10-11T03:56:37.602Z,17.02
2022-10-11T04:01:59.400Z,16.65
2022-10-11T04:07:21.138Z,18.15
2022-10-11T04:12:43.099Z,18.05
2022-10-11T04:18:06.379Z,19.60
2022-10-11T04:23:28.119Z,18.88
2022-10-11T04:28:49.916Z,18.90
2022-10-11T04:34:11.816Z,19.15
2022-10-11T04:39:33.495Z,21.27
2022-10-11T04:44:55.187Z,20.52
2022-10-11T04:50:17.003Z,22.00
2022-10-11T04:55:38.700Z,21.70
2022-10-11T05:01:00.660Z,21.23
2022-10-11T05:06:22.352Z,21.75
2022-10-11T05:11:44.042Z,21.00
2022-10-11T05:17:05.787Z,21.92
2022-10-11T05:22:27.500Z,21.85
2022-10-11T05:27:49.178Z,22.13
2022-10-11T05:33:11.821Z,21.98
2022-10-11T05:38:33.850Z,21.00
2022-10-11T05:43:55.598Z,20.67
2022-10-11T05:49:17.355Z,21.25
2022-10-11T05:54:39.143Z,21.50
2022-10-11T06:00:00.831Z,19.92
2022-10-11T06:05:22.543Z,21.65
2022-10-11T06:10:44.764Z,19.77
2022-10-11T06:16:07.548Z,19.85
2022-10-11T06:21:29.706Z,17.73
2022-10-11T06:26:51.821Z,17.65
2022-10-11T06:32:13.597Z,17.42
2022-10-11T06:37:35.325Z,17.20
2022-10-11T06:42:57.037Z,19.13
2022-10-11T06:48:18.733Z,19.05
2022-10-11T06:53:41.527Z,18.80
2022-10-11T06:59:21.276Z,16.77
2022-10-11T07:04:43.016Z,16.42
2022-10-11T07:10:05.105Z,16.95
2022-10-11T07:15:26.880Z,15.95
2022-10-11T07:20:48.826Z,17.05
2022-10-11T07:26:11.034Z,16.52
2022-10-11T07:31:32.885Z,15.57
2022-10-11T07:36:54.580Z,17.23
2022-10-11T07:42:16.299Z,17.95
2022-10-11T07:47:38.105Z,17.35
2022-10-11T07:52:59.903Z,17.30
2022-10-11T07:58:21.588Z,17.55
2022-10-11T08:03:43.314Z,17.65
2022-10-11T08:09:06.200Z,16.63
2022-10-11T08:14:27.989Z,17.20
2022-10-11T08:19:49.845Z,17.83
2022-10-11T08:25:11.536Z,17.80
2022-10-11T08:30:34.035Z,17.52
2022-10-11T08:35:57.196Z,17.98
2022-10-11T08:41:31.687Z,18.27
2022-10-11T08:47:01.762Z,16.95
2022-10-11T08:52:28.196Z,17.15
2022-10-11T08:57:54.971Z,17.95
2022-10-11T09:03:35.493Z,18.88
2022-10-11T09:09:15.655Z,18.85
2022-10-11T09:14:52.076Z,20.70
2022-10-11T09:20:31.092Z,17.30
2022-10-11T09:26:20.070Z,19.85
2022-10-11T09:31:47.437Z,19.38
2022-10-11T09:37:22.570Z,18.42
2022-10-11T09:42:44.285Z,18.80
2022-10-11T09:48:07.341Z,19.98
2022-10-11T09:54:01.532Z,20.08
2022-10-11T09:59:35.042Z,20.42
2022-10-11T10:05:09.017Z,17.92
2022-10-11T10:10:34.077Z,19.10
2022-10-11T10:16:00.805Z,17.60
2022-10-11T10:21:27.720Z,18.63
2022-10-11T10:27:29.636Z,17.85
2022-10-11T10:32:51.499Z,19.17
2022-10-11T10:38:26.879Z,17.60
2022-10-11T10:43:53.562Z,19.13
2022-10-11T10:49:53.078Z,17.00
2022-10-11T10:55:43.099Z,16.85
2022-10-11T11:01:20.831Z,16.30
2022-10-11T11:06:53.626Z,17.85
2022-10-11T11:12:36.567Z,16.40
2022-10-11T11:18:13.551Z,16.50
2022-10-11T11:24:04.044Z,15.93
2022-10-11T11:29:55.361Z,15.23
2022-10-11T11:35:37.684Z,15.52
2022-10-11T11:41:06.095Z,14.73
2022-10-11T11:46:38.190Z,14.75
2022-10-11T11:52:00.493Z,15.00
2022-10-11T11:57:34.900Z,13.75
2022-10-11T12:03:11.277Z,14.30
2022-10-11T12:08:34.916Z,13.55
2022-10-11T12:13:57.656Z,13.35
2022-10-11T12:19:20.183Z,13.98
2022-10-11T12:25:00.296Z,13.57
2022-10-11T12:30:52.369Z,13.52
2022-10-11T12:36:31.836Z,12.50
2022-10-11T12:42:07.233Z,13.18
2022-10-11T12:47:37.173Z,13.23
2022-10-11T12:53:27.843Z,12.45
2022-10-11T12:58:49.910Z,12.45
2022-10-11T13:04:12.361Z,12.88
2022-10-11T13:09:39.241Z,11.77
2022-10-11T13:15:08.433Z,10.82
2022-10-11T13:20:36.263Z,11.15
2022-10-11T13:26:01.928Z,11.38
2022-10-11T13:31:25.216Z,11.13
2022-10-11T13:36:46.917Z,10.48
2022-10-11T13:42:14.126Z,10.95
2022-10-11T13:47:35.893Z,10.70
2022-10-11T13:53:00.447Z,9.88
2022-10-11T13:58:32.115Z,9.93
2022-10-11T14:03:58.990Z,9.13
2022-10-11T14:09:26.359Z,10.75
2022-10-11T14:14:51.604Z,9.45
2022-10-11T14:20:30.854Z,10.45
2022-10-11T14:25:54.762Z,10.63
2022-10-11T14:31:16.521Z,9.25
2022-10-11T14:36:38.280Z,9.88
2022-10-11T14:42:00.188Z,9.88
2022-10-11T14:47:21.910Z,10.18
2022-10-11T14:52:43.949Z,10.10
2022-10-11T14:58:06.999Z,9.82
2022-10-11T15:03:28.702Z,10.20
2022-10-11T15:08:50.516Z,10.85
2022-10-11T15:14:12.376Z,10.10
2022-10-11T15:19:34.163Z,9.95
2022-10-11T15:24:56.046Z,9.10
2022-10-11T15:30:24.316Z,10.93
2022-10-11T15:35:46.008Z,11.13
2022-10-11T15:41:10.146Z,9.93
2022-10-11T15:46:31.838Z,11.50
2022-10-11T15:51:53.618Z,11.50
2022-10-11T15:57:15.329Z,11.18
2022-10-11T16:02:37.068Z,11.35
2022-10-11T16:07:58.978Z,11.02
2022-10-11T16:13:21.196Z,10.70
2022-10-11T16:18:42.942Z,10.50
2022-10-11T16:24:04.805Z,11.23
2022-10-11T16:29:26.651Z,11.20
2022-10-11T16:34:48.468Z,11.05
2022-10-11T16:40:11.906Z,11.02
2022-10-11T16:45:34.219Z,10.93
2022-10-11T16:51:05.041Z,9.68
2022-10-11T16:56:27.568Z,10.38
2022-10-11T17:01:49.495Z,9.73
2022-10-11T17:07:13.012Z,9.77
2022-10-11T17:12:37.153Z,9.75
2022-10-11T17:17:58.914Z,10.30
2022-10-11T17:23:20.596Z,10.02
2022-10-11T17:28:42.383Z,10.02
2022-10-11T17:34:04.187Z,10.95
2022-10-11T17:39:25.949Z,9.75
2022-10-11T17:44:47.672Z,10.65
2022-10-11T17:50:09.622Z,11.77
2022-10-11T17:55:31.326Z,10.63
2022-10-11T18:00:53.140Z,10.88
2022-10-11T18:06:14.909Z,11.27
2022-10-11T18:11:36.787Z,10.88
2022-10-11T18:16:58.509Z,10.70
2022-10-11T18:22:20.839Z,10.68
2022-10-11T18:27:42.644Z,11.75
2022-10-11T18:33:04.497Z,10.95
2022-10-11T18:38:26.212Z,11.55
2022-10-11T18:43:55.772Z,12.98
2022-10-11T18:49:17.636Z,13.02
2022-10-11T18:54:39.465Z,13.38
2022-10-11T19:00:07.275Z,11.65
2022-10-11T19:05:33.665Z,11.80
2022-10-11T19:10:55.550Z,14.30
2022-10-11T19:16:18.000Z,12.20
2022-10-11T19:21:39.875Z,13.48
2022-10-11T19:27:03.057Z,15.57
2022-10-11T19:32:24.949Z,14.32
2022-10-11T19:37:46.701Z,13.75
2022-10-11T19:43:08.441Z,13.75
2022-10-11T19:48:31.108Z,13.65
2022-10-11T19:54:00.130Z,14.27
2022-10-11T19:59:21.977Z,13.20
2022-10-11T20:04:52.817Z,12.93
2022-10-11T20:10:15.059Z,13.57
2022-10-11T20:15:40.090Z,12.70
2022-10-11T20:21:05.894Z,14.45
2022-10-11T20:26:29.425Z,13.95
2022-10-11T20:31:51.318Z,12.98
2022-10-11T20:37:13.026Z,14.57
2022-10-11T20:42:34.869Z,15.57
2022-10-11T20:47:56.614Z,14.90
2022-10-11T20:53:18.740Z,13.98
2022-10-11T20:58:40.924Z,13.93
2022-10-11T21:04:03.522Z,14.75
2022-10-11T21:09:25.323Z,13.75
2022-10-11T21:14:47.081Z,14.75
2022-10-11T21:20:09.301Z,14.68
2022-10-11T21:25:33.258Z,14.45
2022-10-11T21:30:55.255Z,14.15
2022-10-11T21:36:19.976Z,14.40
2022-10-11T21:41:42.318Z,14.23
2022-10-11T21:47:07.420Z,13.95
2022-10-11T21:52:30.883Z,14.18
2022-10-11T21:57:52.626Z,13.45
2022-10-11T22:03:14.414Z,13.65
2022-10-11T22:08:36.544Z,14.75
2022-10-11T22:13:58.652Z,13.88
2022-10-11T22:19:20.472Z,13.95
2022-10-11T22:24:42.152Z,14.80
2022-10-11T22:30:04.197Z,14.50
2022-10-11T22:35:25.871Z,14.38
2022-10-11T22:40:48.221Z,13.55
2022-10-11T22:46:10.357Z,14.32
2022-10-11T22:51:32.154Z,13.55
2022-10-11T22:56:53.847Z,14.23
2022-10-11T23:02:15.569Z,13.65
2022-10-11T23:07:37.629Z,13.57
2022-10-11T23:12:59.623Z,13.55
2022-10-11T23:18:21.286Z,12.68
2022-10-11T23:23:42.979Z,12.25
2022-10-11T23:29:04.676Z,13.13
2022-10-11T23:34:26.380Z,12.50
2022-10-11T23:39:48.083Z,13.07
2022-10-11T23:45:10.161Z,13.60
2022-10-11T23:50:31.844Z,13.65
2022-10-11T23:55:53.697Z,13.30
